createdAt,value
2018-09-23T00:02:33.276Z,57.30
2018-09-23T00:50:59.400Z,58.40
2018-09-23T01:13:28.838Z,59.10
2018-09-23T01:18:48.130Z,59.50
2018-09-23T01:21:20.827Z,59.60
2018-09-23T01:23:55.576Z,59.50
2018-09-23T01:26:27.210Z,59.40
2018-09-23T01:29:04.113Z,58.80
2018-09-23T01:31:43.729Z,59.30
2018-09-23T01:34:14.581Z,59.10
2018-09-23T01:36:57.160Z,59.10
2018-09-23T01:39:32.107Z,59.20
2018-09-23T01:42:03.206Z,59.20
2018-09-23T01:44:39.275Z,59.20
2018-09-23T01:47:13.676Z,59.40
2018-09-23T01:49:48.827Z,59.50
2018-09-23T01:52:20.578Z,59.60
2018-09-23T01:54:52.212Z,59.50
2018-09-23T01:57:24.418Z,59.60
2018-09-23T01:59:55.083Z,59.80
2018-09-23T02:02:28.536Z,59.90
2018-09-23T02:05:00.807Z,60.30
2018-09-23T02:07:33.840Z,60.30
2018-09-23T02:10:15.610Z,60.20
2018-09-23T02:18:35.118Z,60.40
2018-09-23T02:21:06.929Z,60.20
2018-09-23T02:23:42.539Z,60.70
2018-09-23T02:26:17.167Z,60.20
2018-09-23T02:28:48.720Z,60.10
2018-09-23T02:31:20.081Z,60.30
2018-09-23T02:33:53.031Z,60.40
2018-09-23T02:36:24.312Z,60.60
2018-09-23T02:39:32.968Z,60.70
2018-09-23T02:42:02.648Z,61.00
2018-09-23T02:44:36.173Z,60.90
2018-09-23T02:47:08.263Z,60.90
2018-09-23T02:50:04.312Z,61.00
2018-09-23T02:52:35.117Z,61.00
2018-09-23T02:55:05.922Z,60.80
2018-09-23T02:57:35.304Z,61.00
2018-09-23T03:00:09.460Z,61.10
2018-09-23T03:02:40.793Z,61.20
2018-09-23T03:05:12.446Z,61.40
2018-09-23T03:07:42.611Z,61.40
2018-09-23T03:10:13.686Z,61.40
2018-09-23T03:12:44.270Z,61.30
2018-09-23T03:15:15.513Z,61.40
2018-09-23T03:17:48.431Z,61.40
2018-09-23T03:20:24.712Z,61.50
2018-09-23T03:22:54.618Z,61.40
2018-09-23T03:25:25.987Z,61.20
2018-09-23T03:28:06.118Z,61.20
2018-09-23T03:30:36.850Z,61.30
2018-09-23T03:33:09.886Z,61.20
2018-09-23T03:35:51.065Z,61.30
2018-09-23T03:38:47.285Z,61.20
2018-09-23T03:41:21.810Z,61.20
2018-09-23T03:43:56.429Z,61.00
2018-09-23T03:46:26.526Z,61.30
2018-09-23T03:49:00.899Z,61.30
2018-09-23T03:51:30.887Z,61.30
2018-09-23T03:54:29.691Z,61.10
2018-09-23T03:56:59.292Z,61.10
2018-09-23T03:59:30.565Z,61.00
2018-09-23T04:02:02.770Z,61.30
2018-09-23T04:04:33.426Z,61.40
2018-09-23T04:07:02.541Z,61.40
2018-09-23T04:10:07.328Z,61.30
2018-09-23T04:12:39.822Z,61.40
2018-09-23T04:15:12.220Z,61.40
2018-09-23T04:17:42.800Z,61.40
2018-09-23T04:20:14.363Z,61.60
2018-09-23T04:22:50.272Z,61.20
2018-09-23T04:25:23.712Z,61.20
2018-09-23T04:28:05.386Z,61.20
2018-09-23T04:30:35.828Z,61.30
2018-09-23T04:33:07.532Z,61.20
2018-09-23T04:35:38.865Z,60.70
2018-09-23T04:38:12.790Z,60.70
2018-09-23T04:40:42.936Z,60.80
2018-09-23T04:43:14.507Z,61.00
2018-09-23T04:45:47.285Z,60.90
2018-09-23T04:51:53.290Z,61.20
2018-09-23T04:56:59.865Z,60.70
2018-09-23T04:59:33.793Z,60.70
2018-09-23T05:02:08.028Z,60.60
2018-09-23T05:04:43.387Z,60.70
2018-09-23T05:07:15.318Z,60.60
2018-09-23T05:10:20.982Z,60.60
2018-09-23T05:12:58.215Z,60.60
2018-09-23T05:15:35.407Z,60.60
2018-09-23T05:18:05.585Z,60.50
2018-09-23T05:20:36.645Z,60.30
2018-09-23T05:23:07.659Z,60.30
2018-09-23T05:25:44.435Z,60.20
2018-09-23T05:28:15.844Z,60.20
2018-09-23T05:30:48.022Z,60.10
2018-09-23T05:33:25.537Z,60.30
2018-09-23T05:36:00.976Z,60.50
2018-09-23T05:38:48.903Z,60.60
2018-09-23T05:41:40.247Z,60.40
2018-09-23T05:44:19.628Z,60.30
2018-09-23T05:46:52.456Z,60.20
2018-09-23T05:49:26.917Z,60.10
2018-09-23T05:51:58.084Z,59.80
2018-09-23T05:54:29.344Z,59.60
2018-09-23T05:56:59.557Z,59.50
2018-09-23T05:59:38.210Z,59.60
2018-09-23T06:04:44.349Z,59.60
2018-09-23T06:07:17.816Z,59.60
2018-09-23T06:10:02.484Z,59.60
2018-09-23T06:15:07.391Z,59.10
2018-09-23T06:17:39.688Z,59.20
2018-09-23T06:20:13.327Z,59.20
2018-09-23T06:22:45.595Z,59.20
2018-09-23T06:25:20.258Z,59.50
2018-09-23T06:27:56.089Z,59.40
2018-09-23T06:30:32.048Z,59.50
2018-09-23T06:33:08.118Z,59.70
2018-09-23T06:35:40.161Z,60.00
2018-09-23T06:38:15.525Z,60.00
2018-09-23T06:40:54.011Z,59.80
2018-09-23T06:43:25.537Z,59.80
2018-09-23T06:45:58.434Z,60.10
2018-09-23T06:48:33.393Z,60.10
2018-09-23T06:51:06.072Z,60.40
2018-09-23T07:00:11.827Z,59.90
2018-09-23T07:09:43.881Z,59.50
2018-09-23T07:15:07.497Z,58.90
2018-09-23T07:17:36.316Z,58.80
2018-09-23T07:20:10.406Z,58.40
2018-09-23T07:22:45.864Z,58.40
2018-09-23T07:25:18.498Z,58.00
2018-09-23T07:27:51.889Z,57.80
2018-09-23T07:30:40.955Z,57.30
2018-09-23T07:33:17.015Z,56.70
2018-09-23T07:35:57.646Z,56.60
2018-09-23T07:38:35.828Z,56.50
2018-09-23T07:43:51.027Z,56.20
2018-09-23T07:46:29.442Z,56.00
2018-09-23T07:49:03.463Z,55.60
2018-09-23T08:00:19.393Z,55.30
2018-09-23T08:03:00.467Z,54.80
2018-09-23T08:08:25.989Z,53.40
2018-09-23T08:11:07.964Z,53.40
2018-09-23T08:26:39.432Z,53.20
2018-09-23T08:32:18.469Z,52.40
2018-09-23T08:57:35.549Z,49.40
2018-09-23T09:05:37.181Z,48.50
2018-09-23T09:08:28.801Z,47.90
2018-09-23T09:11:03.802Z,47.40
2018-09-23T09:13:43.810Z,46.90
2018-09-23T09:35:06.426Z,44.90
2018-09-23T09:54:41.675Z,44.30
2018-09-23T09:57:21.839Z,42.40
2018-09-23T09:59:59.256Z,41.00
2018-09-23T10:05:13.384Z,40.30
2018-09-23T10:07:50.638Z,42.80
2018-09-23T10:13:13.952Z,41.80
2018-09-23T10:15:45.295Z,42.10
2018-09-23T10:22:10.704Z,45.10
2018-09-23T10:25:03.808Z,46.40
2018-09-23T10:27:41.151Z,46.70
2018-09-23T10:30:15.012Z,46.60
2018-09-23T10:35:34.566Z,45.20
2018-09-23T10:41:29.736Z,45.50
2018-09-23T10:49:25.539Z,45.40
2018-09-23T10:52:11.948Z,45.50
2018-09-23T10:54:44.304Z,44.90
2018-09-23T11:02:52.428Z,44.40
2018-09-23T11:11:59.133Z,43.80
2018-09-23T11:14:32.806Z,43.50
2018-09-23T11:17:08.830Z,43.10
2018-09-23T11:22:28.407Z,42.40
2018-09-23T11:25:10.341Z,38.90
2018-09-23T11:27:45.846Z,37.00
2018-09-23T11:30:18.550Z,37.00
2018-09-23T11:32:55.379Z,36.30
2018-09-23T11:35:31.432Z,35.80
2018-09-23T11:38:10.425Z,35.50
2018-09-23T11:40:41.267Z,35.90
2018-09-23T11:46:04.575Z,36.70
2018-09-23T11:48:53.977Z,36.20
2018-09-23T11:51:32.857Z,36.30
2018-09-23T11:54:11.924Z,37.00
2018-09-23T11:57:37.582Z,36.70
2018-09-23T15:34:41.842Z,40.10
2018-09-23T19:03:40.681Z,46.30
2018-09-23T19:09:08.437Z,48.00
2018-09-23T19:11:38.932Z,48.90
2018-09-23T19:14:18.547Z,49.40
2018-09-23T19:16:53.511Z,49.60
2018-09-23T19:19:33.936Z,49.30
2018-09-23T19:22:11.373Z,49.30
2018-09-23T19:24:50.479Z,49.80
2018-09-23T19:27:28.383Z,50.20
2018-09-23T19:29:59.789Z,50.60
2018-09-23T19:32:30.044Z,50.90
2018-09-23T19:35:08.952Z,51.40
2018-09-23T19:37:44.077Z,51.50
2018-09-23T19:40:15.995Z,51.30
2018-09-23T19:42:46.179Z,51.20
2018-09-23T19:45:21.156Z,51.10
2018-09-23T19:47:55.765Z,51.10
2018-09-23T19:50:37.147Z,51.30
2018-09-23T19:53:18.875Z,51.50
2018-09-23T19:55:51.654Z,51.60
2018-09-23T19:58:29.895Z,52.00
2018-09-23T20:03:32.893Z,52.40
2018-09-23T20:06:03.823Z,52.40
2018-09-23T20:08:37.565Z,52.60
2018-09-23T20:11:12.015Z,52.70
2018-09-23T20:13:43.709Z,52.90
2018-09-23T20:16:19.097Z,53.20
2018-09-23T20:19:00.079Z,53.10
2018-09-23T20:29:43.443Z,52.70
2018-09-23T20:32:14.005Z,52.60
2018-09-23T20:34:43.949Z,52.50
2018-09-23T20:37:14.262Z,52.30
2018-09-23T20:39:52.187Z,52.50
2018-09-23T20:42:25.518Z,52.60
2018-09-23T20:44:55.306Z,52.50
2018-09-23T20:47:26.180Z,52.30
2018-09-23T20:49:57.574Z,52.20
2018-09-23T20:52:29.871Z,52.20
2018-09-23T20:55:11.030Z,52.70
2018-09-23T20:57:41.396Z,52.70
2018-09-23T21:02:54.662Z,53.00
2018-09-23T21:05:24.653Z,53.00
2018-09-23T21:08:01.495Z,53.00
2018-09-23T21:13:12.758Z,53.30
2018-09-23T21:15:45.382Z,53.30
2018-09-23T21:18:23.883Z,53.50
2018-09-23T21:20:57.079Z,53.50
2018-09-23T21:23:29.258Z,53.40
2018-09-23T21:26:00.570Z,53.20
2018-09-23T21:28:31.435Z,53.30
2018-09-23T21:31:06.381Z,53.20
2018-09-23T21:33:37.859Z,53.30
2018-09-23T21:36:16.504Z,53.50
2018-09-23T21:38:55.283Z,53.90
2018-09-23T21:41:26.647Z,54.00
2018-09-23T21:43:56.801Z,54.30
2018-09-23T21:46:26.803Z,54.50
2018-09-23T21:48:58.958Z,54.50
2018-09-23T21:51:30.342Z,54.60
2018-09-23T21:54:01.553Z,54.80
2018-09-23T21:56:37.040Z,54.60
2018-09-23T21:59:16.044Z,54.70
2018-09-23T22:01:50.923Z,54.80
2018-09-23T22:04:22.832Z,55.10
2018-09-23T22:06:55.494Z,55.20
2018-09-23T22:09:27.298Z,55.10
2018-09-23T22:12:02.261Z,54.90
2018-09-23T22:19:46.786Z,56.20
2018-09-23T22:22:22.237Z,55.80
2018-09-23T22:24:55.925Z,55.90
2018-09-23T22:30:52.415Z,55.80
2018-09-23T22:33:35.826Z,56.10
2018-09-23T22:36:10.161Z,56.20
2018-09-23T22:39:30.487Z,56.30
2018-09-23T22:42:17.763Z,56.50
2018-09-23T22:44:54.483Z,56.80
2018-09-23T22:47:31.909Z,56.80
2018-09-23T22:50:16.930Z,57.00
2018-09-23T22:52:48.009Z,57.00
2018-09-23T22:55:19.696Z,57.00
2018-09-23T22:58:01.557Z,57.00
2018-09-23T23:00:45.009Z,57.00
2018-09-23T23:03:30.872Z,57.00
2018-09-23T23:06:08.690Z,57.30
2018-09-23T23:11:36.089Z,57.30
2018-09-23T23:22:48.265Z,57.50
2018-09-23T23:25:28.998Z,57.70
2018-09-23T23:28:03.167Z,57.70
2018-09-23T23:30:41.461Z,57.80
2018-09-23T23:40:29.675Z,58.00
2018-09-23T23:43:10.014Z,57.80
2018-09-23T23:45:45.424Z,57.90
2018-09-23T23:48:28.547Z,58.10
2018-09-23T23:51:07.587Z,58.20
2018-09-23T23:56:19.468Z,58.20
2018-09-23T23:58:58.007Z,58.20
